sensor_id;sensor_type;location;lat;lon;timestamp;pressure;altitude;pressure_sealevel;temperature;humidity
53526;BME280;40551;50.478;19.378;2023-07-09T00:00:02;98360.54;;;13.94;73.92
53526;BME280;40551;50.478;19.378;2023-07-09T00:03:00;98360.86;;;13.90;73.98
53526;BME280;40551;50.478;19.378;2023-07-09T00:05:33;98365.60;;;13.88;74.05
53526;BME280;40551;50.478;19.378;2023-07-09T00:08:05;98363.92;;;13.86;73.94
53526;BME280;40551;50.478;19.378;2023-07-09T00:10:37;98367.34;;;13.81;73.87
53526;BME280;40551;50.478;19.378;2023-07-09T00:13:11;98364.04;;;13.77;73.99
53526;BME280;40551;50.478;19.378;2023-07-09T00:15:43;98365.69;;;13.72;73.83
53526;BME280;40551;50.478;19.378;2023-07-09T00:18:16;98363.69;;;13.64;73.89
53526;BME280;40551;50.478;19.378;2023-07-09T00:20:48;98364.94;;;13.60;74.13
53526;BME280;40551;50.478;19.378;2023-07-09T00:23:21;98364.40;;;13.56;74.38
53526;BME280;40551;50.478;19.378;2023-07-09T00:25:54;98363.54;;;13.48;73.98
53526;BME280;40551;50.478;19.378;2023-07-09T00:28:26;98365.17;;;13.38;74.14
53526;BME280;40551;50.478;19.378;2023-07-09T00:30:58;98363.98;;;13.32;74.46
53526;BME280;40551;50.478;19.378;2023-07-09T00:33:31;98364.67;;;13.27;74.38
53526;BME280;40551;50.478;19.378;2023-07-09T00:36:13;98364.13;;;13.19;74.33
53526;BME280;40551;50.478;19.378;2023-07-09T00:38:47;98361.30;;;13.07;74.38
53526;BME280;40551;50.478;19.378;2023-07-09T00:41:22;98359.66;;;12.99;74.79
53526;BME280;40551;50.478;19.378;2023-07-09T00:43:55;98357.27;;;12.96;75.13
53526;BME280;40551;50.478;19.378;2023-07-09T00:49:31;98351.66;;;12.81;75.13
53526;BME280;40551;50.478;19.378;2023-07-09T00:52:17;98348.60;;;12.73;75.32
53526;BME280;40551;50.478;19.378;2023-07-09T00:54:54;98345.55;;;12.68;75.78
53526;BME280;40551;50.478;19.378;2023-07-09T00:57:28;98345.80;;;12.67;75.89
53526;BME280;40551;50.478;19.378;2023-07-09T01:00:05;98347.88;;;12.67;76.07
53526;BME280;40551;50.478;19.378;2023-07-09T01:02:43;98347.38;;;12.64;76.05
53526;BME280;40551;50.478;19.378;2023-07-09T01:05:18;98343.16;;;12.63;76.11
53526;BME280;40551;50.478;19.378;2023-07-09T01:07:52;98346.09;;;12.63;76.10
53526;BME280;40551;50.478;19.378;2023-07-09T01:10:25;98344.45;;;12.64;76.02
53526;BME280;40551;50.478;19.378;2023-07-09T01:12:58;98341.42;;;12.67;76.26
53526;BME280;40551;50.478;19.378;2023-07-09T01:15:30;98342.59;;;12.70;76.25
53526;BME280;40551;50.478;19.378;2023-07-09T01:18:07;98344.00;;;12.72;76.30
53526;BME280;40551;50.478;19.378;2023-07-09T01:20:42;98345.58;;;12.71;76.50
53526;BME280;40551;50.478;19.378;2023-07-09T01:23:14;98344.20;;;12.71;76.63
53526;BME280;40551;50.478;19.378;2023-07-09T01:25:50;98344.54;;;12.69;76.52
53526;BME280;40551;50.478;19.378;2023-07-09T01:28:23;98344.48;;;12.68;76.69
53526;BME280;40551;50.478;19.378;2023-07-09T01:30:56;98344.62;;;12.66;76.70
53526;BME280;40551;50.478;19.378;2023-07-09T01:33:28;98344.67;;;12.65;76.51
53526;BME280;40551;50.478;19.378;2023-07-09T01:36:01;98347.13;;;12.63;76.56
53526;BME280;40551;50.478;19.378;2023-07-09T01:38:35;98349.80;;;12.63;76.47
53526;BME280;40551;50.478;19.378;2023-07-09T01:41:08;98353.23;;;12.61;76.71
53526;BME280;40551;50.478;19.378;2023-07-09T01:43:45;98356.43;;;12.60;76.72
53526;BME280;40551;50.478;19.378;2023-07-09T01:46:19;98356.16;;;12.56;76.30
53526;BME280;40551;50.478;19.378;2023-07-09T01:48:52;98359.48;;;12.52;76.46
53526;BME280;40551;50.478;19.378;2023-07-09T01:51:24;98359.40;;;12.49;76.42
53526;BME280;40551;50.478;19.378;2023-07-09T01:53:59;98357.28;;;12.43;76.29
53526;BME280;40551;50.478;19.378;2023-07-09T01:56:31;98361.63;;;12.37;76.30
53526;BME280;40551;50.478;19.378;2023-07-09T01:59:06;98361.36;;;12.30;76.29
53526;BME280;40551;50.478;19.378;2023-07-09T02:01:42;98362.89;;;12.25;76.35
53526;BME280;40551;50.478;19.378;2023-07-09T02:04:14;98362.73;;;12.18;76.26
53526;BME280;40551;50.478;19.378;2023-07-09T02:06:46;98365.81;;;12.11;76.17
53526;BME280;40551;50.478;19.378;2023-07-09T02:09:18;98365.17;;;12.04;76.37
53526;BME280;40551;50.478;19.378;2023-07-09T02:11:52;98366.15;;;11.99;76.62
53526;BME280;40551;50.478;19.378;2023-07-09T02:14:25;98368.86;;;11.96;76.81
53526;BME280;40551;50.478;19.378;2023-07-09T02:16:57;98369.45;;;11.93;76.84
53526;BME280;40551;50.478;19.378;2023-07-09T02:19:31;98365.69;;;11.90;77.15
53526;BME280;40551;50.478;19.378;2023-07-09T02:22:04;98363.77;;;11.88;77.43
53526;BME280;40551;50.478;19.378;2023-07-09T02:24:37;98363.23;;;11.88;77.53
53526;BME280;40551;50.478;19.378;2023-07-09T02:27:16;98367.14;;;11.87;77.59
53526;BME280;40551;50.478;19.378;2023-07-09T02:29:49;98370.56;;;11.84;77.28
53526;BME280;40551;50.478;19.378;2023-07-09T02:32:22;98374.65;;;11.80;77.42
53526;BME280;40551;50.478;19.378;2023-07-09T02:34:56;98368.20;;;11.81;77.60
53526;BME280;40551;50.478;19.378;2023-07-09T02:37:30;98372.41;;;11.80;77.73
53526;BME280;40551;50.478;19.378;2023-07-09T02:40:05;98372.88;;;11.74;77.32
53526;BME280;40551;50.478;19.378;2023-07-09T02:42:37;98371.27;;;11.67;77.39
53526;BME280;40551;50.478;19.378;2023-07-09T02:45:11;98371.66;;;11.62;77.43
53526;BME280;40551;50.478;19.378;2023-07-09T02:47:43;98378.20;;;11.59;77.71
53526;BME280;40551;50.478;19.378;2023-07-09T02:50:16;98378.09;;;11.56;77.94
53526;BME280;40551;50.478;19.378;2023-07-09T02:52:48;98376.39;;;11.53;77.91
53526;BME280;40551;50.478;19.378;2023-07-09T02:55:20;98375.02;;;11.53;78.25
53526;BME280;40551;50.478;19.378;2023-07-09T02:57:53;98376.95;;;11.53;78.24
53526;BME280;40551;50.478;19.378;2023-07-09T03:00:26;98380.56;;;11.51;78.28
53526;BME280;40551;50.478;19.378;2023-07-09T03:02:59;98376.08;;;11.49;78.21
53526;BME280;40551;50.478;19.378;2023-07-09T03:05:33;98378.80;;;11.47;78.14
53526;BME280;40551;50.478;19.378;2023-07-09T03:08:07;98378.27;;;11.45;78.35
53526;BME280;40551;50.478;19.378;2023-07-09T03:10:40;98377.70;;;11.44;78.56
53526;BME280;40551;50.478;19.378;2023-07-09T03:13:13;98381.00;;;11.46;78.67
53526;BME280;40551;50.478;19.378;2023-07-09T03:15:56;98377.27;;;11.60;79.31
53526;BME280;40551;50.478;19.378;2023-07-09T03:18:28;98376.67;;;11.90;79.74
53526;BME280;40551;50.478;19.378;2023-07-09T03:21:01;98373.47;;;12.25;79.71
53526;BME280;40551;50.478;19.378;2023-07-09T03:23:33;98380.11;;;12.65;79.56
53526;BME280;40551;50.478;19.378;2023-07-09T03:26:05;98382.13;;;13.01;79.21
53526;BME280;40551;50.478;19.378;2023-07-09T03:28:37;98383.25;;;13.37;78.21
53526;BME280;40551;50.478;19.378;2023-07-09T03:31:10;98381.38;;;13.72;77.50
53526;BME280;40551;50.478;19.378;2023-07-09T03:33:42;98377.44;;;14.09;76.88
53526;BME280;40551;50.478;19.378;2023-07-09T03:36:16;98371.52;;;14.46;76.31
53526;BME280;40551;50.478;19.378;2023-07-09T03:38:50;98371.97;;;14.83;76.00
53526;BME280;40551;50.478;19.378;2023-07-09T03:41:22;98375.04;;;15.27;75.43
53526;BME280;40551;50.478;19.378;2023-07-09T03:43:55;98369.27;;;15.71;74.69
53526;BME280;40551;50.478;19.378;2023-07-09T03:46:28;98370.76;;;16.12;73.34
53526;BME280;40551;50.478;19.378;2023-07-09T03:49:01;98371.20;;;16.54;72.44
53526;BME280;40551;50.478;19.378;2023-07-09T03:51:33;98371.17;;;16.99;71.62
53526;BME280;40551;50.478;19.378;2023-07-09T03:54:05;98370.85;;;17.42;70.74
53526;BME280;40551;50.478;19.378;2023-07-09T03:56:39;98373.91;;;17.97;70.29
53526;BME280;40551;50.478;19.378;2023-07-09T03:59:11;98369.84;;;18.56;69.27
53526;BME280;40551;50.478;19.378;2023-07-09T04:01:44;98364.86;;;19.06;67.67
53526;BME280;40551;50.478;19.378;2023-07-09T04:04:16;98367.66;;;19.47;66.21
53526;BME280;40551;50.478;19.378;2023-07-09T04:06:51;98370.77;;;19.88;64.86
53526;BME280;40551;50.478;19.378;2023-07-09T04:09:23;98373.43;;;20.21;63.57
53526;BME280;40551;50.478;19.378;2023-07-09T04:11:56;98367.60;;;20.55;62.56
53526;BME280;40551;50.478;19.378;2023-07-09T04:14:29;98369.66;;;21.00;62.10
53526;BME280;40551;50.478;19.378;2023-07-09T04:17:03;98368.80;;;21.46;61.19
53526;BME280;40551;50.478;19.378;2023-07-09T04:19:36;98370.03;;;21.85;59.75
53526;BME280;40551;50.478;19.378;2023-07-09T04:22:09;98373.70;;;22.13;58.61
53526;BME280;40551;50.478;19.378;2023-07-09T04:24:42;98371.83;;;22.46;57.94
53526;BME280;40551;50.478;19.378;2023-07-09T04:27:16;98373.91;;;22.77;57.05
53526;BME280;40551;50.478;19.378;2023-07-09T04:29:48;98370.19;;;23.15;56.32
53526;BME280;40551;50.478;19.378;2023-07-09T04:32:21;98369.27;;;23.58;55.60
53526;BME280;40551;50.478;19.378;2023-07-09T04:34:53;98366.91;;;23.99;54.54
53526;BME280;40551;50.478;19.378;2023-07-09T04:37:25;98369.00;;;24.27;53.50
53526;BME280;40551;50.478;19.378;2023-07-09T04:39:57;98371.41;;;24.52;52.78
53526;BME280;40551;50.478;19.378;2023-07-09T04:42:29;98370.86;;;24.80;52.23
53526;BME280;40551;50.478;19.378;2023-07-09T04:45:01;98377.55;;;25.11;51.67
53526;BME280;40551;50.478;19.378;2023-07-09T04:47:33;98373.88;;;25.48;50.92
53526;BME280;40551;50.478;19.378;2023-07-09T04:50:08;98384.45;;;25.80;49.85
53526;BME280;40551;50.478;19.378;2023-07-09T04:52:41;98385.41;;;26.18;49.34
53526;BME280;40551;50.478;19.378;2023-07-09T04:55:13;98380.56;;;26.52;48.69
53526;BME280;40551;50.478;19.378;2023-07-09T04:57:45;98383.83;;;26.87;47.97
53526;BME280;40551;50.478;19.378;2023-07-09T05:00:17;98383.02;;;27.20;47.02
53526;BME280;40551;50.478;19.378;2023-07-09T05:02:51;98390.14;;;27.52;46.54
53526;BME280;40551;50.478;19.378;2023-07-09T05:05:24;98389.75;;;27.83;45.86
53526;BME280;40551;50.478;19.378;2023-07-09T05:07:57;98391.91;;;28.11;45.70
53526;BME280;40551;50.478;19.378;2023-07-09T05:10:30;98391.27;;;28.44;45.07
53526;BME280;40551;50.478;19.378;2023-07-09T05:13:02;98394.55;;;28.84;44.56
53526;BME280;40551;50.478;19.378;2023-07-09T05:15:34;98394.95;;;29.20;43.80
53526;BME280;40551;50.478;19.378;2023-07-09T05:18:07;98396.97;;;29.52;43.02
53526;BME280;40551;50.478;19.378;2023-07-09T05:20:40;98394.58;;;29.81;42.60
53526;BME280;40551;50.478;19.378;2023-07-09T05:23:12;98395.76;;;30.20;42.08
53526;BME280;40551;50.478;19.378;2023-07-09T05:25:43;98401.68;;;30.61;41.35
53526;BME280;40551;50.478;19.378;2023-07-09T05:28:15;98402.48;;;30.93;40.54
53526;BME280;40551;50.478;19.378;2023-07-09T05:30:47;98403.40;;;31.17;40.07
53526;BME280;40551;50.478;19.378;2023-07-09T05:33:19;98402.05;;;31.41;39.88
53526;BME280;40551;50.478;19.378;2023-07-09T05:35:51;98404.04;;;31.69;39.51
53526;BME280;40551;50.478;19.378;2023-07-09T05:38:24;98403.40;;;32.11;39.46
53526;BME280;40551;50.478;19.378;2023-07-09T05:41:05;98405.17;;;32.47;38.92
53526;BME280;40551;50.478;19.378;2023-07-09T05:43:38;98403.66;;;32.79;38.19
53526;BME280;40551;50.478;19.378;2023-07-09T05:46:12;98400.45;;;33.05;37.52
53526;BME280;40551;50.478;19.378;2023-07-09T05:48:44;98406.13;;;33.34;37.22
53526;BME280;40551;50.478;19.378;2023-07-09T05:51:17;98403.65;;;33.66;36.75
53526;BME280;40551;50.478;19.378;2023-07-09T05:53:49;98403.44;;;33.89;36.31
53526;BME280;40551;50.478;19.378;2023-07-09T05:56:22;98405.64;;;34.04;35.96
53526;BME280;40551;50.478;19.378;2023-07-09T05:58:55;98399.90;;;34.24;35.98
53526;BME280;40551;50.478;19.378;2023-07-09T06:01:28;98404.21;;;34.53;35.54
53526;BME280;40551;50.478;19.378;2023-07-09T06:04:00;98406.19;;;34.79;35.09
53526;BME280;40551;50.478;19.378;2023-07-09T06:06:34;98407.46;;;35.11;34.88
53526;BME280;40551;50.478;19.378;2023-07-09T06:09:06;98405.97;;;35.42;34.25
53526;BME280;40551;50.478;19.378;2023-07-09T06:11:39;98410.06;;;35.76;33.44
53526;BME280;40551;50.478;19.378;2023-07-09T06:14:11;98409.75;;;36.09;32.86
53526;BME280;40551;50.478;19.378;2023-07-09T06:16:43;98408.87;;;36.46;32.12
53526;BME280;40551;50.478;19.378;2023-07-09T06:19:15;98411.95;;;36.72;31.05
53526;BME280;40551;50.478;19.378;2023-07-09T06:21:47;98412.17;;;36.87;30.04
53526;BME280;40551;50.478;19.378;2023-07-09T06:24:21;98408.59;;;37.04;29.78
53526;BME280;40551;50.478;19.378;2023-07-09T06:26:53;98406.29;;;37.22;29.66
53526;BME280;40551;50.478;19.378;2023-07-09T06:29:25;98408.30;;;37.49;29.36
53526;BME280;40551;50.478;19.378;2023-07-09T06:31:58;98407.63;;;37.69;29.05
53526;BME280;40551;50.478;19.378;2023-07-09T06:34:30;98406.61;;;37.88;28.34
53526;BME280;40551;50.478;19.378;2023-07-09T06:37:02;98405.31;;;38.05;28.05
53526;BME280;40551;50.478;19.378;2023-07-09T06:39:35;98405.96;;;38.26;27.65
53526;BME280;40551;50.478;19.378;2023-07-09T06:42:08;98407.69;;;38.40;27.57
53526;BME280;40551;50.478;19.378;2023-07-09T06:45:06;98405.54;;;38.45;26.77
53526;BME280;40551;50.478;19.378;2023-07-09T06:47:39;98407.48;;;38.45;26.98
53526;BME280;40551;50.478;19.378;2023-07-09T06:50:14;98405.41;;;38.54;26.61
53526;BME280;40551;50.478;19.378;2023-07-09T06:52:46;98406.61;;;38.60;26.69
53526;BME280;40551;50.478;19.378;2023-07-09T06:55:19;98409.21;;;38.76;26.94
53526;BME280;40551;50.478;19.378;2023-07-09T06:57:51;98410.02;;;38.86;26.04
53526;BME280;40551;50.478;19.378;2023-07-09T07:00:23;98408.65;;;38.84;25.63
53526;BME280;40551;50.478;19.378;2023-07-09T07:02:55;98407.36;;;38.76;25.21
53526;BME280;40551;50.478;19.378;2023-07-09T07:05:28;98402.37;;;38.61;24.78
53526;BME280;40551;50.478;19.378;2023-07-09T07:08:01;98405.02;;;38.51;25.15
53526;BME280;40551;50.478;19.378;2023-07-09T07:10:33;98399.30;;;38.54;25.30
53526;BME280;40551;50.478;19.378;2023-07-09T07:13:05;98403.05;;;38.52;25.05
53526;BME280;40551;50.478;19.378;2023-07-09T07:15:39;98404.58;;;38.40;25.06
53526;BME280;40551;50.478;19.378;2023-07-09T07:18:12;98402.65;;;38.25;25.65
53526;BME280;40551;50.478;19.378;2023-07-09T07:20:44;98399.45;;;38.07;25.51
53526;BME280;40551;50.478;19.378;2023-07-09T07:23:16;98396.61;;;37.83;25.60
53526;BME280;40551;50.478;19.378;2023-07-09T07:25:48;98399.20;;;37.61;25.08
53526;BME280;40551;50.478;19.378;2023-07-09T07:28:21;98398.86;;;37.34;25.10
53526;BME280;40551;50.478;19.378;2023-07-09T07:31:03;98397.84;;;36.88;24.71
53526;BME280;40551;50.478;19.378;2023-07-09T07:33:37;98390.98;;;36.19;25.00
53526;BME280;40551;50.478;19.378;2023-07-09T07:36:11;98397.76;;;35.55;25.51
53526;BME280;40551;50.478;19.378;2023-07-09T07:38:58;98396.95;;;34.95;26.47
53526;BME280;40551;50.478;19.378;2023-07-09T07:41:30;98393.65;;;34.31;26.67
53526;BME280;40551;50.478;19.378;2023-07-09T07:44:02;98394.75;;;33.85;27.54
53526;BME280;40551;50.478;19.378;2023-07-09T07:46:35;98396.09;;;33.45;27.03
53526;BME280;40551;50.478;19.378;2023-07-09T07:49:08;98395.00;;;33.08;27.15
53526;BME280;40551;50.478;19.378;2023-07-09T07:51:41;98389.80;;;32.69;27.62
53526;BME280;40551;50.478;19.378;2023-07-09T07:54:15;98388.23;;;32.35;27.45
53526;BME280;40551;50.478;19.378;2023-07-09T07:56:49;98390.30;;;32.09;28.19
53526;BME280;40551;50.478;19.378;2023-07-09T07:59:21;98388.27;;;31.92;29.14
53526;BME280;40551;50.478;19.378;2023-07-09T08:01:53;98388.93;;;31.71;28.79
53526;BME280;40551;50.478;19.378;2023-07-09T08:04:25;98393.06;;;31.47;28.64
53526;BME280;40551;50.478;19.378;2023-07-09T08:06:58;98393.77;;;31.24;27.92
53526;BME280;40551;50.478;19.378;2023-07-09T08:09:30;98393.38;;;30.96;28.04
53526;BME280;40551;50.478;19.378;2023-07-09T08:12:02;98391.91;;;30.71;28.24
53526;BME280;40551;50.478;19.378;2023-07-09T08:14:41;98387.50;;;30.55;28.48
53526;BME280;40551;50.478;19.378;2023-07-09T08:17:14;98387.44;;;30.45;28.70
53526;BME280;40551;50.478;19.378;2023-07-09T08:19:47;98385.83;;;30.36;28.71
53526;BME280;40551;50.478;19.378;2023-07-09T08:22:22;98386.86;;;30.33;29.14
53526;BME280;40551;50.478;19.378;2023-07-09T08:24:54;98385.67;;;30.28;29.15
53526;BME280;40551;50.478;19.378;2023-07-09T08:27:26;98384.29;;;30.25;29.27
53526;BME280;40551;50.478;19.378;2023-07-09T08:29:59;98380.66;;;30.26;29.96
53526;BME280;40551;50.478;19.378;2023-07-09T08:32:31;98378.23;;;30.30;29.85
53526;BME280;40551;50.478;19.378;2023-07-09T08:35:04;98375.69;;;30.28;29.85
53526;BME280;40551;50.478;19.378;2023-07-09T08:37:57;98379.52;;;30.25;29.52
53526;BME280;40551;50.478;19.378;2023-07-09T08:40:29;98379.41;;;30.21;29.20
53526;BME280;40551;50.478;19.378;2023-07-09T08:43:06;98373.56;;;30.16;29.17
53526;BME280;40551;50.478;19.378;2023-07-09T08:45:50;98377.38;;;30.16;29.53
53526;BME280;40551;50.478;19.378;2023-07-09T08:48:28;98373.27;;;30.17;30.03
53526;BME280;40551;50.478;19.378;2023-07-09T08:51:08;98375.83;;;30.15;29.47
53526;BME280;40551;50.478;19.378;2023-07-09T08:53:48;98370.46;;;30.04;29.01
53526;BME280;40551;50.478;19.378;2023-07-09T08:56:23;98374.73;;;29.93;29.04
53526;BME280;40551;50.478;19.378;2023-07-09T08:59:00;98375.20;;;29.87;29.19
53526;BME280;40551;50.478;19.378;2023-07-09T09:01:37;98368.60;;;29.88;29.67
53526;BME280;40551;50.478;19.378;2023-07-09T09:04:18;98370.10;;;29.96;30.21
53526;BME280;40551;50.478;19.378;2023-07-09T09:06:54;98363.63;;;30.02;29.75
53526;BME280;40551;50.478;19.378;2023-07-09T09:09:36;98362.71;;;30.06;29.38
53526;BME280;40551;50.478;19.378;2023-07-09T09:12:15;98365.96;;;30.07;29.08
53526;BME280;40551;50.478;19.378;2023-07-09T09:14:53;98372.52;;;30.09;28.84
53526;BME280;40551;50.478;19.378;2023-07-09T09:17:28;98369.50;;;30.03;28.61
53526;BME280;40551;50.478;19.378;2023-07-09T09:20:03;98368.27;;;30.00;28.27
53526;BME280;40551;50.478;19.378;2023-07-09T09:22:43;98365.27;;;30.01;28.71
53526;BME280;40551;50.478;19.378;2023-07-09T09:25:23;98367.39;;;30.06;28.83
53526;BME280;40551;50.478;19.378;2023-07-09T09:27:59;98366.72;;;30.08;28.68
53526;BME280;40551;50.478;19.378;2023-07-09T09:30:32;98368.17;;;30.17;29.46
53526;BME280;40551;50.478;19.378;2023-07-09T09:33:08;98367.60;;;30.25;29.54
53526;BME280;40551;50.478;19.378;2023-07-09T09:35:44;98369.39;;;30.32;28.90
53526;BME280;40551;50.478;19.378;2023-07-09T09:38:21;98362.92;;;30.34;28.01
53526;BME280;40551;50.478;19.378;2023-07-09T09:41:00;98358.16;;;30.36;28.41
53526;BME280;40551;50.478;19.378;2023-07-09T09:43:34;98362.42;;;30.41;28.26
53526;BME280;40551;50.478;19.378;2023-07-09T09:46:09;98367.27;;;30.44;28.21
53526;BME280;40551;50.478;19.378;2023-07-09T09:48:44;98366.08;;;30.46;27.97
53526;BME280;40551;50.478;19.378;2023-07-09T09:51:17;98367.61;;;30.45;27.60
53526;BME280;40551;50.478;19.378;2023-07-09T09:53:51;98368.48;;;30.45;27.22
53526;BME280;40551;50.478;19.378;2023-07-09T09:56:28;98363.23;;;30.39;27.38
53526;BME280;40551;50.478;19.378;2023-07-09T09:59:01;98365.45;;;30.36;27.38
53526;BME280;40551;50.478;19.378;2023-07-09T10:01:35;98366.34;;;30.36;27.16
53526;BME280;40551;50.478;19.378;2023-07-09T10:04:14;98359.70;;;30.39;27.41
53526;BME280;40551;50.478;19.378;2023-07-09T10:06:52;98363.78;;;30.39;26.99
53526;BME280;40551;50.478;19.378;2023-07-09T10:09:33;98357.64;;;30.33;27.74
53526;BME280;40551;50.478;19.378;2023-07-09T10:12:16;98356.86;;;30.34;27.76
53526;BME280;40551;50.478;19.378;2023-07-09T10:14:51;98357.30;;;30.39;28.19
53526;BME280;40551;50.478;19.378;2023-07-09T10:17:37;98356.43;;;30.43;27.90
53526;BME280;40551;50.478;19.378;2023-07-09T10:20:21;98356.27;;;30.49;27.77
53526;BME280;40551;50.478;19.378;2023-07-09T10:23:07;98354.61;;;30.50;27.29
53526;BME280;40551;50.478;19.378;2023-07-09T10:25:51;98351.31;;;30.47;26.97
53526;BME280;40551;50.478;19.378;2023-07-09T10:28:35;98350.98;;;30.46;26.65
53526;BME280;40551;50.478;19.378;2023-07-09T10:31:16;98355.66;;;30.38;26.76
53526;BME280;40551;50.478;19.378;2023-07-09T10:33:57;98357.02;;;30.34;26.72
53526;BME280;40551;50.478;19.378;2023-07-09T10:36:44;98352.52;;;30.35;26.87
53526;BME280;40551;50.478;19.378;2023-07-09T10:39:23;98359.66;;;30.40;26.77
53526;BME280;40551;50.478;19.378;2023-07-09T10:41:58;98353.76;;;30.44;26.76
53526;BME280;40551;50.478;19.378;2023-07-09T10:44:35;98350.10;;;30.54;26.92
53526;BME280;40551;50.478;19.378;2023-07-09T10:47:14;98351.56;;;30.65;26.41
53526;BME280;40551;50.478;19.378;2023-07-09T10:49:50;98347.21;;;30.72;26.66
53526;BME280;40551;50.478;19.378;2023-07-09T10:52:25;98343.23;;;30.70;26.34
53526;BME280;40551;50.478;19.378;2023-07-09T10:55:01;98339.84;;;30.60;25.71
53526;BME280;40551;50.478;19.378;2023-07-09T10:57:43;98337.42;;;30.49;26.22
53526;BME280;40551;50.478;19.378;2023-07-09T11:00:20;98339.80;;;30.50;26.23
53526;BME280;40551;50.478;19.378;2023-07-09T11:03:00;98342.18;;;30.58;26.27
53526;BME280;40551;50.478;19.378;2023-07-09T11:05:34;98340.85;;;30.64;26.49
53526;BME280;40551;50.478;19.378;2023-07-09T11:08:13;98342.61;;;30.73;26.54
53526;BME280;40551;50.478;19.378;2023-07-09T11:10:50;98346.20;;;30.86;26.59
53526;BME280;40551;50.478;19.378;2023-07-09T11:13:28;98336.40;;;30.97;26.75
53526;BME280;40551;50.478;19.378;2023-07-09T11:16:29;98341.52;;;31.03;26.06
53526;BME280;40551;50.478;19.378;2023-07-09T11:19:05;98338.86;;;31.03;25.80
53526;BME280;40551;50.478;19.378;2023-07-09T11:21:55;98335.06;;;31.11;26.20
53526;BME280;40551;50.478;19.378;2023-07-09T11:24:33;98325.86;;;31.16;26.43
53526;BME280;40551;50.478;19.378;2023-07-09T11:27:17;98333.45;;;31.24;26.69
53526;BME280;40551;50.478;19.378;2023-07-09T11:29:58;98328.50;;;31.31;27.28
53526;BME280;40551;50.478;19.378;2023-07-09T11:32:31;98324.48;;;31.34;26.39
53526;BME280;40551;50.478;19.378;2023-07-09T11:35:20;98320.98;;;31.34;26.67
53526;BME280;40551;50.478;19.378;2023-07-09T11:37:52;98323.52;;;31.26;26.71
53526;BME280;40551;50.478;19.378;2023-07-09T11:40:26;98325.14;;;31.20;26.76
53526;BME280;40551;50.478;19.378;2023-07-09T11:42:59;98323.94;;;31.18;26.43
53526;BME280;40551;50.478;19.378;2023-07-09T11:45:32;98318.77;;;31.15;26.06
53526;BME280;40551;50.478;19.378;2023-07-09T11:48:23;98322.23;;;31.06;26.41
53526;BME280;40551;50.478;19.378;2023-07-09T11:50:57;98322.91;;;30.86;26.73
53526;BME280;40551;50.478;19.378;2023-07-09T11:53:35;98325.48;;;30.69;26.36
53526;BME280;40551;50.478;19.378;2023-07-09T11:56:10;98321.59;;;30.60;26.61
53526;BME280;40551;50.478;19.378;2023-07-09T11:58:54;98318.96;;;30.63;26.73
53526;BME280;40551;50.478;19.378;2023-07-09T12:01:30;98317.38;;;30.68;27.34
53526;BME280;40551;50.478;19.378;2023-07-09T12:04:04;98317.52;;;30.66;26.27
53526;BME280;40551;50.478;19.378;2023-07-09T12:06:39;98318.80;;;30.60;27.12
53526;BME280;40551;50.478;19.378;2023-07-09T12:09:15;98315.73;;;30.61;27.08
53526;BME280;40551;50.478;19.378;2023-07-09T12:11:50;98313.94;;;30.59;26.18
53526;BME280;40551;50.478;19.378;2023-07-09T12:14:23;98310.51;;;30.64;26.00
53526;BME280;40551;50.478;19.378;2023-07-09T12:16:57;98304.30;;;30.72;25.97
53526;BME280;40551;50.478;19.378;2023-07-09T12:19:31;98298.42;;;30.77;26.23
53526;BME280;40551;50.478;19.378;2023-07-09T12:22:09;98292.77;;;30.76;25.98
53526;BME280;40551;50.478;19.378;2023-07-09T12:24:44;98289.09;;;30.78;26.04
53526;BME280;40551;50.478;19.378;2023-07-09T12:27:22;98292.09;;;30.82;25.96
53526;BME280;40551;50.478;19.378;2023-07-09T12:29:56;98281.21;;;30.91;26.51
53526;BME280;40551;50.478;19.378;2023-07-09T12:32:28;98274.60;;;30.97;26.93
53526;BME280;40551;50.478;19.378;2023-07-09T12:35:00;98278.63;;;30.98;26.97
53526;BME280;40551;50.478;19.378;2023-07-09T12:37:32;98276.16;;;30.95;25.95
53526;BME280;40551;50.478;19.378;2023-07-09T12:40:07;98279.67;;;30.86;25.19
53526;BME280;40551;50.478;19.378;2023-07-09T12:42:44;98277.89;;;30.70;25.06
53526;BME280;40551;50.478;19.378;2023-07-09T12:45:19;98280.73;;;30.57;24.91
53526;BME280;40551;50.478;19.378;2023-07-09T12:47:52;98280.56;;;30.50;25.60
53526;BME280;40551;50.478;19.378;2023-07-09T12:50:32;98275.88;;;30.49;25.68
53526;BME280;40551;50.478;19.378;2023-07-09T12:53:15;98274.52;;;30.54;25.87
53526;BME280;40551;50.478;19.378;2023-07-09T12:55:48;98273.59;;;30.52;25.92
53526;BME280;40551;50.478;19.378;2023-07-09T12:58:23;98273.44;;;30.52;25.84
53526;BME280;40551;50.478;19.378;2023-07-09T13:00:56;98274.27;;;30.49;25.78
53526;BME280;40551;50.478;19.378;2023-07-09T13:03:30;98267.59;;;30.53;26.13
53526;BME280;40551;50.478;19.378;2023-07-09T13:06:05;98268.20;;;30.56;25.86
53526;BME280;40551;50.478;19.378;2023-07-09T13:08:44;98263.73;;;30.59;26.00
53526;BME280;40551;50.478;19.378;2023-07-09T13:11:20;98269.07;;;30.61;25.58
53526;BME280;40551;50.478;19.378;2023-07-09T13:14:02;98269.14;;;30.59;25.30
53526;BME280;40551;50.478;19.378;2023-07-09T13:16:40;98263.40;;;30.59;25.28
53526;BME280;40551;50.478;19.378;2023-07-09T13:19:17;98261.77;;;30.62;25.30
53526;BME280;40551;50.478;19.378;2023-07-09T13:21:49;98260.20;;;30.69;25.94
53526;BME280;40551;50.478;19.378;2023-07-09T13:24:27;98257.48;;;30.76;25.83
53526;BME280;40551;50.478;19.378;2023-07-09T13:27:01;98254.84;;;30.77;25.70
53526;BME280;40551;50.478;19.378;2023-07-09T13:29:35;98254.73;;;30.68;25.54
53526;BME280;40551;50.478;19.378;2023-07-09T13:32:12;98254.83;;;30.68;25.93